createdAt,value
2018-05-17T05:01:53.225Z,88.96
2018-05-17T05:04:26.488Z,88.91
2018-05-17T05:06:59.765Z,88.77
2018-05-17T05:09:33.190Z,88.74
2018-05-17T05:12:06.303Z,88.33
2018-05-17T05:14:39.550Z,88.19
2018-05-17T05:17:12.853Z,87.82
2018-05-17T05:19:46.110Z,88.25
2018-05-17T05:22:19.363Z,87.77
2018-05-17T05:24:52.620Z,88.13
2018-05-17T05:27:25.889Z,87.89
2018-05-17T05:29:59.152Z,87.78
2018-05-17T05:32:32.848Z,87.80
2018-05-17T05:35:06.864Z,86.95
2018-05-17T05:37:40.466Z,86.88
2018-05-17T05:40:13.669Z,86.73
2018-05-17T05:42:46.944Z,86.07
2018-05-17T05:45:20.197Z,86.56
2018-05-17T05:47:53.489Z,86.09
2018-05-17T05:50:26.731Z,85.68
2018-05-17T05:53:00.024Z,85.56
2018-05-17T05:55:33.272Z,84.94
2018-05-17T05:58:06.552Z,84.36
2018-05-17T06:00:40.575Z,84.44
2018-05-17T06:03:13.851Z,83.78
2018-05-17T06:05:47.127Z,83.66
2018-05-17T06:08:26.262Z,84.00
2018-05-17T06:10:59.488Z,83.93
2018-05-17T06:13:32.775Z,83.56
2018-05-17T06:16:06.024Z,82.16
2018-05-17T06:18:39.300Z,82.50
2018-05-17T06:21:12.555Z,83.04
2018-05-17T06:23:45.890Z,82.85
2018-05-17T06:26:19.091Z,82.22
2018-05-17T06:28:52.356Z,82.16
2018-05-17T06:31:25.612Z,82.22
2018-05-17T06:33:58.883Z,81.81
2018-05-17T06:36:32.139Z,81.97
2018-05-17T06:39:06.239Z,81.06
2018-05-17T06:41:39.494Z,79.75
2018-05-17T06:44:12.772Z,79.85
2018-05-17T06:46:46.031Z,79.58
2018-05-17T06:49:19.304Z,78.40
2018-05-17T06:51:52.598Z,78.58
2018-05-17T06:54:25.833Z,78.76
2018-05-17T06:56:59.085Z,78.67
2018-05-17T06:59:32.372Z,78.21
2018-05-17T07:02:05.717Z,77.71
2018-05-17T07:04:39.141Z,77.88
2018-05-17T07:07:13.370Z,78.21
2018-05-17T07:09:46.674Z,77.51
2018-05-17T07:12:19.926Z,77.81
2018-05-17T07:14:53.210Z,78.06
2018-05-17T07:17:28.406Z,77.22
2018-05-17T07:20:01.673Z,76.77
2018-05-17T07:22:35.693Z,77.18
2018-05-17T07:25:09.732Z,76.49
2018-05-17T07:27:42.996Z,75.75
2018-05-17T07:30:17.047Z,75.83
2018-05-17T07:32:50.300Z,75.57
2018-05-17T07:35:23.596Z,75.74
2018-05-17T07:37:57.620Z,75.53
2018-05-17T07:40:30.887Z,75.72
2018-05-17T07:43:04.139Z,75.43
2018-05-17T07:45:37.430Z,75.50
2018-05-17T07:48:10.681Z,75.82
2018-05-17T07:50:44.751Z,75.84
2018-05-17T07:53:18.008Z,75.12
2018-05-17T07:55:51.280Z,75.67
2018-05-17T07:58:25.317Z,75.51
2018-05-17T08:00:58.611Z,75.60
2018-05-17T08:03:31.870Z,75.96
2018-05-17T08:06:05.141Z,76.43
2018-05-17T08:08:38.401Z,75.99
2018-05-17T08:11:11.708Z,75.86
2018-05-17T08:13:44.961Z,75.20
2018-05-17T08:16:18.245Z,74.05
2018-05-17T08:18:51.491Z,73.83
2018-05-17T08:21:24.793Z,73.99
2018-05-17T08:23:58.049Z,73.38
2018-05-17T08:26:31.331Z,73.66
2018-05-17T08:29:04.624Z,73.25
2018-05-17T08:31:37.884Z,73.68
2018-05-17T08:34:11.141Z,74.38
2018-05-17T08:36:44.473Z,74.36
2018-05-17T08:39:17.700Z,73.98
2018-05-17T08:41:51.009Z,72.20
2018-05-17T08:44:24.265Z,71.64
2018-05-17T08:46:57.541Z,69.71
2018-05-17T08:49:30.792Z,69.29
2018-05-17T08:52:04.068Z,68.91
2018-05-17T08:54:37.330Z,69.85
2018-05-17T08:57:10.595Z,70.07
2018-05-17T08:59:43.933Z,67.33
2018-05-17T09:02:17.232Z,67.06
2018-05-17T09:04:50.606Z,66.33
2018-05-17T09:07:24.060Z,65.75
2018-05-17T09:09:58.296Z,65.63
2018-05-17T09:12:31.768Z,65.89
2018-05-17T09:15:05.245Z,66.55
2018-05-17T09:17:39.501Z,66.75
2018-05-17T09:20:12.920Z,66.62
2018-05-17T09:22:46.341Z,67.03
2018-05-17T09:25:19.591Z,66.63
2018-05-17T09:27:52.864Z,66.00
2018-05-17T09:30:26.880Z,65.56
2018-05-17T09:33:00.163Z,64.86
2018-05-17T09:35:34.233Z,64.73
2018-05-17T09:38:08.224Z,65.09
2018-05-17T09:40:41.476Z,65.07
2018-05-17T09:43:14.743Z,65.30
2018-05-17T09:45:48.000Z,65.54
2018-05-17T09:48:21.282Z,66.02
2018-05-17T09:50:54.539Z,65.08
2018-05-17T09:53:27.815Z,65.13
2018-05-17T09:56:01.064Z,67.15
2018-05-17T09:58:34.344Z,67.40
2018-05-17T10:01:07.617Z,67.74
2018-05-17T10:03:40.882Z,68.61
2018-05-17T10:06:14.141Z,68.20
2018-05-17T10:08:47.497Z,69.86
2018-05-17T10:11:21.440Z,69.24
2018-05-17T10:13:54.715Z,69.95
2018-05-17T10:16:28.736Z,69.87
2018-05-17T10:19:02.776Z,69.83
2018-05-17T10:21:36.024Z,69.35
2018-05-17T10:24:10.063Z,69.18
2018-05-17T10:26:43.341Z,69.33
2018-05-17T10:29:16.625Z,69.41
2018-05-17T10:31:49.883Z,69.36
2018-05-17T10:34:23.165Z,68.31
2018-05-17T10:36:56.463Z,69.09
2018-05-17T10:39:29.739Z,68.79
2018-05-17T10:42:02.995Z,68.43
2018-05-17T10:44:36.279Z,67.82
2018-05-17T10:47:09.543Z,67.95
2018-05-17T10:49:42.816Z,66.49
2018-05-17T10:52:16.071Z,65.71
2018-05-17T10:54:50.128Z,65.50
2018-05-17T10:57:23.380Z,65.88
2018-05-17T10:59:56.673Z,66.62
2018-05-17T11:02:29.977Z,66.97
2018-05-17T11:05:03.325Z,66.19
2018-05-17T11:07:36.575Z,65.88
2018-05-17T11:10:09.959Z,65.09
2018-05-17T11:12:43.207Z,63.25
2018-05-17T11:15:16.557Z,63.56
2018-05-17T11:17:49.762Z,63.17
2018-05-17T11:20:23.051Z,62.67
2018-05-17T11:22:56.307Z,62.63
2018-05-17T11:25:29.696Z,62.08
2018-05-17T11:28:02.959Z,60.08
2018-05-17T11:30:36.265Z,60.61
2018-05-17T11:33:09.580Z,60.49
2018-05-17T11:35:42.843Z,61.04
2018-05-17T11:38:16.097Z,60.66
2018-05-17T11:40:50.477Z,59.22
2018-05-17T11:43:23.735Z,59.22
2018-05-17T11:45:57.024Z,59.46
2018-05-17T11:48:30.309Z,59.85
2018-05-17T11:51:03.555Z,58.77
2018-05-17T11:53:36.830Z,58.37
2018-05-17T11:56:10.104Z,59.23
2018-05-17T11:58:43.377Z,60.38
2018-05-17T12:01:16.667Z,61.12
2018-05-17T12:03:49.913Z,61.74
2018-05-17T12:06:23.216Z,62.83
2018-05-17T12:08:56.477Z,62.79
2018-05-17T12:11:29.864Z,63.79
2018-05-17T12:14:03.131Z,64.58
2018-05-17T12:16:36.401Z,65.14
2018-05-17T12:19:09.659Z,66.64
2018-05-17T12:21:42.969Z,68.49
2018-05-17T12:24:16.323Z,71.47
2018-05-17T12:26:49.713Z,73.26
2018-05-17T12:29:23.731Z,73.26
2018-05-17T12:31:57.039Z,73.55
2018-05-17T12:34:30.284Z,72.66
2018-05-17T12:37:03.756Z,73.53
2018-05-17T12:39:36.907Z,72.02
2018-05-17T12:42:10.223Z,71.14
2018-05-17T12:44:43.500Z,71.38
2018-05-17T12:47:16.903Z,69.63
2018-05-17T12:49:50.163Z,68.30
2018-05-17T12:52:23.435Z,66.90
2018-05-17T12:54:56.704Z,66.39
2018-05-17T12:57:30.015Z,66.70
2018-05-17T13:00:03.270Z,66.92
2018-05-17T13:02:36.563Z,67.12
2018-05-17T13:05:27.485Z,66.89
2018-05-17T13:08:00.799Z,67.34
2018-05-17T13:10:34.076Z,67.46
2018-05-17T13:13:08.591Z,67.41
2018-05-17T13:18:15.904Z,67.59
2018-05-17T13:20:49.160Z,67.81
2018-05-17T13:23:23.223Z,67.22
2018-05-17T13:25:56.481Z,67.47
2018-05-17T13:28:30.546Z,68.17
2018-05-17T13:31:03.794Z,69.16
2018-05-17T13:33:37.107Z,63.43
2018-05-17T13:36:10.356Z,60.45
2018-05-17T13:38:43.642Z,61.82
2018-05-17T13:41:16.884Z,68.98
2018-05-17T13:43:50.183Z,77.38
2018-05-17T13:46:23.444Z,83.51
2018-05-17T13:48:57.597Z,84.88
2018-05-17T13:51:30.852Z,84.59
2018-05-17T13:54:04.904Z,83.80
2018-05-17T13:56:38.172Z,83.90
2018-05-17T13:59:12.208Z,84.86
2018-05-17T14:01:45.476Z,85.12
2018-05-17T14:04:19.513Z,85.13
2018-05-17T14:06:52.777Z,87.82
2018-05-17T14:09:26.947Z,89.28
2018-05-17T14:12:00.206Z,90.77
2018-05-17T14:14:33.480Z,90.58
2018-05-17T14:17:06.875Z,89.50
2018-05-17T14:19:40.144Z,90.69
2018-05-17T14:22:13.651Z,91.96
2018-05-17T14:24:47.906Z,91.87
2018-05-17T14:27:22.571Z,91.82
2018-05-17T14:29:55.876Z,92.09
2018-05-17T14:32:31.339Z,92.17
2018-05-17T14:35:10.716Z,92.30
2018-05-17T14:37:43.980Z,92.25
2018-05-17T14:40:17.283Z,91.30
2018-05-17T14:42:50.694Z,98.93
2018-05-17T14:45:25.930Z,99.38
2018-05-17T14:47:59.585Z,99.63
2018-05-17T14:50:33.075Z,99.74
2018-05-17T14:53:06.332Z,99.86
2018-05-17T14:55:39.621Z,99.89
2018-05-17T14:58:13.396Z,99.48
2018-05-17T15:00:46.669Z,92.93
2018-05-17T15:03:19.942Z,92.60
2018-05-17T15:05:53.220Z,92.56
2018-05-17T15:08:26.539Z,92.33
2018-05-17T15:10:59.753Z,92.09
2018-05-17T15:13:33.029Z,91.92
2018-05-17T15:16:07.456Z,91.87
2018-05-17T15:18:41.485Z,91.61
2018-05-17T15:21:14.784Z,91.53
2018-05-17T15:23:48.059Z,91.68
2018-05-17T15:26:21.349Z,91.70
2018-05-17T15:28:54.608Z,91.62
2018-05-17T15:31:27.902Z,91.54
2018-05-17T15:34:01.236Z,91.39
2018-05-17T15:36:34.451Z,91.21
2018-05-17T15:39:07.724Z,90.86
2018-05-17T15:41:41.091Z,90.96
2018-05-17T15:44:14.273Z,90.82
2018-05-17T15:46:47.552Z,90.91
2018-05-17T15:49:20.806Z,90.86
2018-05-17T15:51:54.092Z,90.94
2018-05-17T15:54:27.349Z,90.71
2018-05-17T15:57:00.635Z,90.87
2018-05-17T15:59:33.901Z,90.40
2018-05-17T16:02:07.187Z,90.69
2018-05-17T16:04:40.449Z,90.23
2018-05-17T16:07:14.493Z,90.26
2018-05-17T16:09:47.764Z,90.44
2018-05-17T16:12:21.067Z,90.73
2018-05-17T16:14:54.443Z,90.64
2018-05-17T16:17:28.377Z,90.68
2018-05-17T16:20:01.648Z,90.76
2018-05-17T16:22:34.931Z,90.52
2018-05-17T16:25:08.951Z,90.48
2018-05-17T16:27:42.243Z,90.53
2018-05-17T16:30:16.281Z,90.29
2018-05-17T16:32:49.637Z,90.36
2018-05-17T16:35:22.840Z,90.50
2018-05-17T16:38:15.754Z,90.19
2018-05-17T16:40:49.022Z,90.35
2018-05-17T16:43:22.306Z,89.89
2018-05-17T16:45:55.570Z,90.16
2018-05-17T16:48:29.702Z,89.92
2018-05-17T16:51:02.915Z,90.02
2018-05-17T16:53:36.189Z,89.59
2018-05-17T16:56:09.471Z,89.78
2018-05-17T16:58:43.578Z,89.95
2018-05-17T17:01:16.868Z,89.96
2018-05-17T17:03:50.916Z,90.14
2018-05-17T17:06:24.173Z,90.16
2018-05-17T17:08:57.473Z,89.51
2018-05-17T17:11:30.745Z,88.99
2018-05-17T17:14:04.017Z,89.49
2018-05-17T17:16:37.293Z,89.65
2018-05-17T17:19:10.602Z,89.16
2018-05-17T17:21:43.865Z,89.36
2018-05-17T17:24:17.177Z,88.49
2018-05-17T17:26:50.431Z,88.13
2018-05-17T17:29:23.740Z,88.25
2018-05-17T17:31:57.776Z,88.18
2018-05-17T17:34:31.075Z,88.26
2018-05-17T17:37:04.348Z,87.77
2018-05-17T17:39:37.646Z,87.89
2018-05-17T17:42:10.913Z,87.27
2018-05-17T17:44:44.964Z,87.35
2018-05-17T17:47:18.216Z,87.24
2018-05-17T17:49:52.504Z,86.95
2018-05-17T17:52:25.720Z,87.12
2018-05-17T17:54:59.017Z,87.11
2018-05-17T17:57:32.288Z,87.06
2018-05-17T18:00:05.569Z,86.91
2018-05-17T18:02:38.824Z,87.03
2018-05-17T18:05:12.150Z,87.01
2018-05-17T18:07:46.152Z,87.10
2018-05-17T18:10:19.451Z,86.41
2018-05-17T18:12:52.709Z,86.37
2018-05-17T18:15:25.987Z,86.47
2018-05-17T18:18:00.242Z,86.11
2018-05-17T18:20:33.533Z,86.49
2018-05-17T18:23:06.801Z,86.44
2018-05-17T18:25:40.080Z,86.40
2018-05-17T18:28:13.455Z,85.73
2018-05-17T18:30:46.741Z,86.39
2018-05-17T18:33:20.019Z,86.20
2018-05-17T18:35:53.391Z,86.06
2018-05-17T18:38:26.796Z,85.94
2018-05-17T18:41:00.881Z,86.27
2018-05-17T18:43:34.922Z,86.23
2018-05-17T18:46:08.420Z,86.20
2018-05-17T18:48:41.688Z,86.36
2018-05-17T18:51:15.093Z,86.65
2018-05-17T18:53:48.353Z,86.42
2018-05-17T18:56:21.804Z,86.06
2018-05-17T18:58:55.077Z,86.29
2018-05-17T19:01:28.411Z,86.10
2018-05-17T19:04:01.670Z,86.39
2018-05-17T19:06:35.736Z,86.14
2018-05-17T19:09:09.011Z,86.36
2018-05-17T19:11:42.295Z,86.83
2018-05-17T19:14:15.588Z,86.55
2018-05-17T19:16:48.892Z,86.53
2018-05-17T19:19:22.157Z,86.67
2018-05-17T19:21:56.227Z,86.45
2018-05-17T19:24:29.499Z,86.49
2018-05-17T19:27:02.793Z,86.53
2018-05-17T19:29:36.061Z,86.50
2018-05-17T19:32:09.344Z,86.12
2018-05-17T19:34:42.762Z,86.38
2018-05-17T19:37:16.124Z,86.21
2018-05-17T19:39:49.373Z,86.30
2018-05-17T19:42:22.686Z,86.33
2018-05-17T19:44:55.975Z,86.22
2018-05-17T19:47:29.257Z,86.80
2018-05-17T19:50:02.519Z,87.18
2018-05-17T19:52:35.815Z,86.99
2018-05-17T19:55:09.088Z,87.10
2018-05-17T19:57:43.161Z,86.53
2018-05-17T20:00:17.283Z,86.24
2018-05-17T20:02:50.561Z,86.18
2018-05-17T20:05:23.828Z,86.13
2018-05-17T20:07:58.059Z,86.07
2018-05-17T20:10:31.324Z,86.07
2018-05-17T20:13:05.374Z,86.01
2018-05-17T20:15:38.647Z,86.21
2018-05-17T20:18:12.685Z,86.09
2018-05-17T20:20:45.960Z,86.15
2018-05-17T20:23:19.444Z,86.17
2018-05-17T20:25:53.475Z,86.26
2018-05-17T20:28:26.947Z,86.18
2018-05-17T20:31:00.986Z,86.09
2018-05-17T20:33:34.383Z,86.04
2018-05-17T20:36:08.417Z,86.10
2018-05-17T20:38:41.704Z,86.09
2018-05-17T20:41:14.964Z,86.11
2018-05-17T20:43:49.007Z,86.13
2018-05-17T20:46:22.272Z,85.97
2018-05-17T20:48:56.320Z,85.88
2018-05-17T20:51:29.589Z,85.87
2018-05-17T20:54:02.905Z,85.96
2018-05-17T20:56:36.167Z,86.07
2018-05-17T20:59:10.217Z,85.88
2018-05-17T21:01:43.477Z,86.07
2018-05-17T21:04:16.895Z,86.05
2018-05-17T21:06:50.155Z,86.07
2018-05-17T21:09:24.210Z,86.04
2018-05-17T21:11:57.485Z,85.89
2018-05-17T21:14:30.764Z,85.99
2018-05-17T21:17:04.035Z,86.09
2018-05-17T21:19:37.313Z,85.96
2018-05-17T21:22:10.581Z,85.97
2018-05-17T21:24:43.869Z,85.87
2018-05-17T21:27:17.184Z,85.92
2018-05-17T21:29:51.198Z,86.21
2018-05-17T21:32:24.443Z,86.05
2018-05-17T21:34:57.736Z,86.16
2018-05-17T21:37:31.009Z,86.07
2018-05-17T21:40:05.069Z,86.08
2018-05-17T21:42:38.336Z,86.00
2018-05-17T21:45:11.629Z,85.99
2018-05-17T21:47:44.886Z,86.30
2018-05-17T21:50:18.162Z,86.02
2018-05-17T21:52:51.425Z,85.97
2018-05-17T21:55:24.789Z,85.94
2018-05-17T21:57:57.975Z,85.83
2018-05-17T22:00:31.251Z,85.87
2018-05-17T22:03:04.576Z,85.89
2018-05-17T22:05:38.628Z,85.83
2018-05-17T22:08:22.424Z,85.64
2018-05-17T22:10:56.767Z,86.03
2018-05-17T22:13:30.032Z,86.20
2018-05-17T22:16:03.317Z,85.66
2018-05-17T22:18:36.581Z,85.68
2018-05-17T22:21:09.860Z,85.40
2018-05-17T22:23:43.116Z,85.31
2018-05-17T22:26:17.169Z,85.16
2018-05-17T22:28:50.437Z,85.15
